sensor_id;sensor_type;location;lat;lon;timestamp;P1;durP1;ratioP1;P2;durP2;ratioP2
4084;SDS011;2057;50.858;6.572;2022-10-16T00:01:07;3.47;;;2.20;;
4084;SDS011;2057;50.858;6.572;2022-10-16T00:03:36;4.20;;;1.83;;
4084;SDS011;2057;50.858;6.572;2022-10-16T00:06:03;2.47;;;2.27;;
4084;SDS011;2057;50.858;6.572;2022-10-16T00:08:31;5.17;;;2.00;;
4084;SDS011;2057;50.858;6.572;2022-10-16T00:11:01;2.93;;;2.30;;
4084;SDS011;2057;50.858;6.572;2022-10-16T00:13:31;2.37;;;2.17;;
4084;SDS011;2057;50.858;6.572;2022-10-16T00:15:59;4.30;;;2.20;;
4084;SDS011;2057;50.858;6.572;2022-10-16T00:18:25;6.33;;;2.60;;
4084;SDS011;2057;50.858;6.572;2022-10-16T00:20:51;4.10;;;1.97;;
4084;SDS011;2057;50.858;6.572;2022-10-16T00:23:17;2.77;;;2.00;;
4084;SDS011;2057;50.858;6.572;2022-10-16T00:25:43;5.57;;;2.20;;
4084;SDS011;2057;50.858;6.572;2022-10-16T00:28:08;1.77;;;1.67;;
4084;SDS011;2057;50.858;6.572;2022-10-16T00:30:33;1.93;;;1.60;;
4084;SDS011;2057;50.858;6.572;2022-10-16T00:32:59;3.00;;;1.93;;
4084;SDS011;2057;50.858;6.572;2022-10-16T00:35:24;4.57;;;2.33;;
4084;SDS011;2057;50.858;6.572;2022-10-16T00:37:49;4.17;;;1.90;;
4084;SDS011;2057;50.858;6.572;2022-10-16T00:40:15;2.53;;;2.10;;
4084;SDS011;2057;50.858;6.572;2022-10-16T00:42:40;3.67;;;1.63;;
4084;SDS011;2057;50.858;6.572;2022-10-16T00:45:06;3.50;;;1.77;;
4084;SDS011;2057;50.858;6.572;2022-10-16T00:47:34;3.17;;;1.70;;
4084;SDS011;2057;50.858;6.572;2022-10-16T00:50:09;2.93;;;1.80;;
4084;SDS011;2057;50.858;6.572;2022-10-16T00:52:42;2.23;;;2.10;;
4084;SDS011;2057;50.858;6.572;2022-10-16T00:55:11;1.90;;;1.80;;
4084;SDS011;2057;50.858;6.572;2022-10-16T00:57:37;2.70;;;2.40;;
4084;SDS011;2057;50.858;6.572;2022-10-16T01:00:07;1.83;;;1.73;;
4084;SDS011;2057;50.858;6.572;2022-10-16T01:02:34;15.63;;;2.00;;
4084;SDS011;2057;50.858;6.572;2022-10-16T01:05:00;4.80;;;2.20;;
4084;SDS011;2057;50.858;6.572;2022-10-16T01:08:12;2.33;;;2.13;;
4084;SDS011;2057;50.858;6.572;2022-10-16T01:13:31;2.73;;;2.50;;
4084;SDS011;2057;50.858;6.572;2022-10-16T01:16:05;2.50;;;1.93;;
4084;SDS011;2057;50.858;6.572;2022-10-16T01:21:32;1.80;;;1.70;;
4084;SDS011;2057;50.858;6.572;2022-10-16T01:26:50;2.60;;;2.17;;
4084;SDS011;2057;50.858;6.572;2022-10-16T01:29:52;2.27;;;1.80;;
4084;SDS011;2057;50.858;6.572;2022-10-16T01:34:52;1.30;;;1.20;;
4084;SDS011;2057;50.858;6.572;2022-10-16T01:37:35;3.03;;;1.77;;
4084;SDS011;2057;50.858;6.572;2022-10-16T01:40:17;2.70;;;1.60;;
4084;SDS011;2057;50.858;6.572;2022-10-16T01:42:46;1.80;;;1.70;;
4084;SDS011;2057;50.858;6.572;2022-10-16T01:45:24;1.77;;;1.67;;
4084;SDS011;2057;50.858;6.572;2022-10-16T01:47:49;1.93;;;1.73;;
4084;SDS011;2057;50.858;6.572;2022-10-16T01:50:37;4.00;;;1.50;;
4084;SDS011;2057;50.858;6.572;2022-10-16T01:53:07;2.10;;;1.37;;
4084;SDS011;2057;50.858;6.572;2022-10-16T01:55:37;6.17;;;2.10;;
4084;SDS011;2057;50.858;6.572;2022-10-16T01:58:09;4.93;;;1.90;;
4084;SDS011;2057;50.858;6.572;2022-10-16T02:00:37;3.13;;;1.60;;
4084;SDS011;2057;50.858;6.572;2022-10-16T02:03:04;3.27;;;1.63;;
4084;SDS011;2057;50.858;6.572;2022-10-16T02:05:34;1.90;;;1.40;;
4084;SDS011;2057;50.858;6.572;2022-10-16T02:08:16;1.43;;;1.33;;
4084;SDS011;2057;50.858;6.572;2022-10-16T02:10:42;2.00;;;1.80;;
4084;SDS011;2057;50.858;6.572;2022-10-16T02:13:12;1.87;;;1.50;;
4084;SDS011;2057;50.858;6.572;2022-10-16T02:15:39;1.30;;;1.20;;
4084;SDS011;2057;50.858;6.572;2022-10-16T02:18:05;1.40;;;1.30;;
4084;SDS011;2057;50.858;6.572;2022-10-16T02:20:54;8.10;;;1.90;;
4084;SDS011;2057;50.858;6.572;2022-10-16T02:23:24;3.57;;;1.70;;
4084;SDS011;2057;50.858;6.572;2022-10-16T02:26:04;6.33;;;1.60;;
4084;SDS011;2057;50.858;6.572;2022-10-16T02:28:37;1.40;;;1.30;;
4084;SDS011;2057;50.858;6.572;2022-10-16T02:31:08;1.53;;;1.30;;
4084;SDS011;2057;50.858;6.572;2022-10-16T02:33:36;1.27;;;1.17;;
4084;SDS011;2057;50.858;6.572;2022-10-16T02:36:05;2.30;;;1.20;;
4084;SDS011;2057;50.858;6.572;2022-10-16T02:38:32;1.60;;;1.50;;
4084;SDS011;2057;50.858;6.572;2022-10-16T02:40:59;2.30;;;1.40;;
4084;SDS011;2057;50.858;6.572;2022-10-16T02:43:24;2.30;;;1.63;;
4084;SDS011;2057;50.858;6.572;2022-10-16T02:45:51;3.33;;;1.30;;
4084;SDS011;2057;50.858;6.572;2022-10-16T02:48:16;2.00;;;1.80;;
4084;SDS011;2057;50.858;6.572;2022-10-16T02:50:41;11.20;;;2.53;;
4084;SDS011;2057;50.858;6.572;2022-10-16T02:53:07;2.50;;;1.27;;
4084;SDS011;2057;50.858;6.572;2022-10-16T02:55:32;1.33;;;1.20;;
4084;SDS011;2057;50.858;6.572;2022-10-16T02:57:58;1.43;;;1.17;;
4084;SDS011;2057;50.858;6.572;2022-10-16T03:00:23;2.10;;;1.80;;
4084;SDS011;2057;50.858;6.572;2022-10-16T03:02:49;2.10;;;1.57;;
4084;SDS011;2057;50.858;6.572;2022-10-16T03:05:14;1.27;;;1.17;;
4084;SDS011;2057;50.858;6.572;2022-10-16T03:07:39;2.80;;;1.10;;
4084;SDS011;2057;50.858;6.572;2022-10-16T03:10:05;1.40;;;1.27;;
4084;SDS011;2057;50.858;6.572;2022-10-16T03:12:31;3.13;;;1.10;;
4084;SDS011;2057;50.858;6.572;2022-10-16T03:14:59;4.97;;;1.20;;
4084;SDS011;2057;50.858;6.572;2022-10-16T03:17:24;5.17;;;1.67;;
4084;SDS011;2057;50.858;6.572;2022-10-16T03:19:50;2.07;;;1.13;;
4084;SDS011;2057;50.858;6.572;2022-10-16T03:22:16;1.17;;;1.00;;
4084;SDS011;2057;50.858;6.572;2022-10-16T03:24:41;1.40;;;1.30;;
4084;SDS011;2057;50.858;6.572;2022-10-16T03:27:06;1.47;;;1.10;;
4084;SDS011;2057;50.858;6.572;2022-10-16T03:29:32;5.40;;;1.43;;
4084;SDS011;2057;50.858;6.572;2022-10-16T03:31:57;2.60;;;2.40;;
4084;SDS011;2057;50.858;6.572;2022-10-16T03:34:23;3.50;;;1.10;;
4084;SDS011;2057;50.858;6.572;2022-10-16T03:36:49;3.53;;;1.37;;
4084;SDS011;2057;50.858;6.572;2022-10-16T03:39:15;2.00;;;1.10;;
4084;SDS011;2057;50.858;6.572;2022-10-16T03:41:40;4.13;;;1.07;;
4084;SDS011;2057;50.858;6.572;2022-10-16T03:44:06;3.23;;;1.20;;
4084;SDS011;2057;50.858;6.572;2022-10-16T03:46:31;1.30;;;1.00;;
4084;SDS011;2057;50.858;6.572;2022-10-16T03:48:56;1.40;;;1.30;;
4084;SDS011;2057;50.858;6.572;2022-10-16T03:51:22;11.73;;;1.60;;
4084;SDS011;2057;50.858;6.572;2022-10-16T03:53:47;3.43;;;1.50;;
4084;SDS011;2057;50.858;6.572;2022-10-16T03:56:12;3.50;;;1.60;;
4084;SDS011;2057;50.858;6.572;2022-10-16T03:58:38;2.10;;;1.50;;
4084;SDS011;2057;50.858;6.572;2022-10-16T04:01:03;1.20;;;0.97;;
4084;SDS011;2057;50.858;6.572;2022-10-16T04:03:28;3.10;;;1.20;;
4084;SDS011;2057;50.858;6.572;2022-10-16T04:05:54;1.23;;;1.23;;
4084;SDS011;2057;50.858;6.572;2022-10-16T04:08:21;0.97;;;0.97;;
4084;SDS011;2057;50.858;6.572;2022-10-16T04:10:49;1.20;;;1.10;;
4084;SDS011;2057;50.858;6.572;2022-10-16T04:13:15;1.90;;;1.10;;
4084;SDS011;2057;50.858;6.572;2022-10-16T04:15:41;2.10;;;1.37;;
4084;SDS011;2057;50.858;6.572;2022-10-16T04:18:06;2.37;;;1.30;;
4084;SDS011;2057;50.858;6.572;2022-10-16T04:20:32;1.80;;;1.13;;
4084;SDS011;2057;50.858;6.572;2022-10-16T04:22:57;1.50;;;1.30;;
4084;SDS011;2057;50.858;6.572;2022-10-16T04:25:23;2.03;;;1.10;;
4084;SDS011;2057;50.858;6.572;2022-10-16T04:27:48;1.10;;;1.00;;
4084;SDS011;2057;50.858;6.572;2022-10-16T04:30:14;1.93;;;1.50;;
4084;SDS011;2057;50.858;6.572;2022-10-16T04:32:39;2.20;;;1.50;;
4084;SDS011;2057;50.858;6.572;2022-10-16T04:35:05;1.33;;;1.17;;
4084;SDS011;2057;50.858;6.572;2022-10-16T04:37:35;1.87;;;1.40;;
4084;SDS011;2057;50.858;6.572;2022-10-16T04:40:00;3.63;;;1.40;;
4084;SDS011;2057;50.858;6.572;2022-10-16T04:42:26;2.43;;;1.53;;
4084;SDS011;2057;50.858;6.572;2022-10-16T04:44:51;1.17;;;1.17;;
4084;SDS011;2057;50.858;6.572;2022-10-16T04:47:16;1.73;;;1.53;;
4084;SDS011;2057;50.858;6.572;2022-10-16T04:49:42;2.90;;;1.47;;
4084;SDS011;2057;50.858;6.572;2022-10-16T04:52:07;1.40;;;1.30;;
4084;SDS011;2057;50.858;6.572;2022-10-16T04:54:35;1.50;;;1.40;;
4084;SDS011;2057;50.858;6.572;2022-10-16T04:57:00;1.20;;;1.20;;
4084;SDS011;2057;50.858;6.572;2022-10-16T04:59:25;1.30;;;1.20;;
4084;SDS011;2057;50.858;6.572;2022-10-16T05:01:51;1.70;;;1.60;;
4084;SDS011;2057;50.858;6.572;2022-10-16T05:04:16;1.80;;;1.33;;
4084;SDS011;2057;50.858;6.572;2022-10-16T05:06:42;2.30;;;1.30;;
4084;SDS011;2057;50.858;6.572;2022-10-16T05:09:07;3.73;;;1.77;;
4084;SDS011;2057;50.858;6.572;2022-10-16T05:11:33;1.73;;;1.20;;
4084;SDS011;2057;50.858;6.572;2022-10-16T05:13:59;2.90;;;1.53;;
4084;SDS011;2057;50.858;6.572;2022-10-16T05:16:24;1.70;;;1.60;;
4084;SDS011;2057;50.858;6.572;2022-10-16T05:18:50;2.17;;;2.00;;
4084;SDS011;2057;50.858;6.572;2022-10-16T05:21:16;3.13;;;1.30;;
4084;SDS011;2057;50.858;6.572;2022-10-16T05:23:41;1.57;;;1.47;;
4084;SDS011;2057;50.858;6.572;2022-10-16T05:26:07;1.47;;;1.30;;
4084;SDS011;2057;50.858;6.572;2022-10-16T05:28:32;1.43;;;1.30;;
4084;SDS011;2057;50.858;6.572;2022-10-16T05:30:58;1.33;;;1.23;;
4084;SDS011;2057;50.858;6.572;2022-10-16T05:33:25;2.60;;;1.77;;
4084;SDS011;2057;50.858;6.572;2022-10-16T05:35:51;2.33;;;1.47;;
4084;SDS011;2057;50.858;6.572;2022-10-16T05:38:17;12.17;;;1.50;;
4084;SDS011;2057;50.858;6.572;2022-10-16T05:40:43;4.50;;;1.80;;
4084;SDS011;2057;50.858;6.572;2022-10-16T05:43:08;1.50;;;1.40;;
4084;SDS011;2057;50.858;6.572;2022-10-16T05:45:33;2.33;;;1.60;;
4084;SDS011;2057;50.858;6.572;2022-10-16T05:47:59;11.10;;;1.50;;
4084;SDS011;2057;50.858;6.572;2022-10-16T05:50:27;2.90;;;1.70;;
4084;SDS011;2057;50.858;6.572;2022-10-16T05:52:53;2.77;;;1.80;;
4084;SDS011;2057;50.858;6.572;2022-10-16T05:55:18;1.30;;;1.20;;
4084;SDS011;2057;50.858;6.572;2022-10-16T05:57:43;3.00;;;1.60;;
4084;SDS011;2057;50.858;6.572;2022-10-16T06:00:10;1.67;;;1.57;;
4084;SDS011;2057;50.858;6.572;2022-10-16T06:02:36;1.67;;;1.57;;
4084;SDS011;2057;50.858;6.572;2022-10-16T06:05:01;1.77;;;1.67;;
4084;SDS011;2057;50.858;6.572;2022-10-16T06:07:26;2.23;;;1.53;;
4084;SDS011;2057;50.858;6.572;2022-10-16T06:09:52;1.80;;;1.70;;
4084;SDS011;2057;50.858;6.572;2022-10-16T06:12:18;5.53;;;1.87;;
4084;SDS011;2057;50.858;6.572;2022-10-16T06:14:45;5.50;;;1.93;;
4084;SDS011;2057;50.858;6.572;2022-10-16T06:17:14;4.23;;;1.53;;
4084;SDS011;2057;50.858;6.572;2022-10-16T06:19:39;1.80;;;1.70;;
4084;SDS011;2057;50.858;6.572;2022-10-16T06:22:05;2.67;;;1.80;;
4084;SDS011;2057;50.858;6.572;2022-10-16T06:24:30;4.10;;;2.30;;
4084;SDS011;2057;50.858;6.572;2022-10-16T06:26:55;8.23;;;1.70;;
4084;SDS011;2057;50.858;6.572;2022-10-16T06:29:21;2.60;;;2.10;;
4084;SDS011;2057;50.858;6.572;2022-10-16T06:31:46;3.20;;;1.70;;
4084;SDS011;2057;50.858;6.572;2022-10-16T06:34:11;1.60;;;1.50;;
4084;SDS011;2057;50.858;6.572;2022-10-16T06:36:37;1.60;;;1.50;;
4084;SDS011;2057;50.858;6.572;2022-10-16T06:39:03;2.40;;;1.60;;
4084;SDS011;2057;50.858;6.572;2022-10-16T06:41:30;2.13;;;1.70;;
4084;SDS011;2057;50.858;6.572;2022-10-16T06:43:56;3.70;;;1.60;;
4084;SDS011;2057;50.858;6.572;2022-10-16T06:46:22;1.57;;;1.47;;
4084;SDS011;2057;50.858;6.572;2022-10-16T06:48:49;1.90;;;1.80;;
4084;SDS011;2057;50.858;6.572;2022-10-16T06:51:15;4.00;;;2.60;;
4084;SDS011;2057;50.858;6.572;2022-10-16T06:53:46;7.77;;;2.00;;
4084;SDS011;2057;50.858;6.572;2022-10-16T06:56:17;2.33;;;1.80;;
4084;SDS011;2057;50.858;6.572;2022-10-16T06:58:45;2.93;;;1.80;;
4084;SDS011;2057;50.858;6.572;2022-10-16T07:01:11;2.47;;;1.73;;
4084;SDS011;2057;50.858;6.572;2022-10-16T07:03:42;5.17;;;2.30;;
4084;SDS011;2057;50.858;6.572;2022-10-16T07:06:09;6.23;;;1.50;;
4084;SDS011;2057;50.858;6.572;2022-10-16T07:08:36;8.93;;;2.80;;
4084;SDS011;2057;50.858;6.572;2022-10-16T07:11:07;1.87;;;1.77;;
4084;SDS011;2057;50.858;6.572;2022-10-16T07:13:35;3.13;;;1.90;;
4084;SDS011;2057;50.858;6.572;2022-10-16T07:16:08;19.87;;;1.90;;
4084;SDS011;2057;50.858;6.572;2022-10-16T07:18:34;7.33;;;2.47;;
4084;SDS011;2057;50.858;6.572;2022-10-16T07:23:29;4.83;;;2.33;;
4084;SDS011;2057;50.858;6.572;2022-10-16T07:25:55;3.37;;;1.80;;
4084;SDS011;2057;50.858;6.572;2022-10-16T07:28:20;7.23;;;1.70;;
4084;SDS011;2057;50.858;6.572;2022-10-16T07:30:46;3.57;;;2.17;;
4084;SDS011;2057;50.858;6.572;2022-10-16T07:33:11;6.83;;;1.70;;
4084;SDS011;2057;50.858;6.572;2022-10-16T07:35:36;2.87;;;1.80;;
4084;SDS011;2057;50.858;6.572;2022-10-16T07:38:02;2.37;;;1.63;;
4084;SDS011;2057;50.858;6.572;2022-10-16T07:40:27;15.87;;;1.93;;
4084;SDS011;2057;50.858;6.572;2022-10-16T07:42:52;8.30;;;1.57;;
4084;SDS011;2057;50.858;6.572;2022-10-16T07:45:18;5.57;;;2.73;;
4084;SDS011;2057;50.858;6.572;2022-10-16T07:47:43;10.40;;;1.70;;
4084;SDS011;2057;50.858;6.572;2022-10-16T07:50:08;3.70;;;1.60;;
4084;SDS011;2057;50.858;6.572;2022-10-16T07:52:34;2.00;;;1.30;;
4084;SDS011;2057;50.858;6.572;2022-10-16T07:54:59;2.90;;;1.77;;
4084;SDS011;2057;50.858;6.572;2022-10-16T07:57:24;9.80;;;1.70;;
4084;SDS011;2057;50.858;6.572;2022-10-16T07:59:50;1.57;;;1.47;;
4084;SDS011;2057;50.858;6.572;2022-10-16T08:02:15;3.10;;;1.60;;
4084;SDS011;2057;50.858;6.572;2022-10-16T08:04:40;4.63;;;2.50;;
4084;SDS011;2057;50.858;6.572;2022-10-16T08:07:06;1.53;;;1.23;;
4084;SDS011;2057;50.858;6.572;2022-10-16T08:09:33;4.07;;;1.50;;
4084;SDS011;2057;50.858;6.572;2022-10-16T08:11:58;2.17;;;1.47;;
4084;SDS011;2057;50.858;6.572;2022-10-16T08:14:23;3.70;;;1.40;;
4084;SDS011;2057;50.858;6.572;2022-10-16T08:16:48;2.30;;;1.30;;
4084;SDS011;2057;50.858;6.572;2022-10-16T08:19:14;2.30;;;1.20;;
4084;SDS011;2057;50.858;6.572;2022-10-16T08:21:40;3.50;;;1.27;;
4084;SDS011;2057;50.858;6.572;2022-10-16T08:24:06;6.23;;;1.20;;
4084;SDS011;2057;50.858;6.572;2022-10-16T08:26:31;3.43;;;1.40;;
4084;SDS011;2057;50.858;6.572;2022-10-16T08:28:57;2.40;;;1.00;;
4084;SDS011;2057;50.858;6.572;2022-10-16T08:31:22;3.47;;;1.43;;
4084;SDS011;2057;50.858;6.572;2022-10-16T08:33:48;5.00;;;1.00;;
4084;SDS011;2057;50.858;6.572;2022-10-16T08:36:15;2.90;;;1.43;;
4084;SDS011;2057;50.858;6.572;2022-10-16T08:38:41;3.43;;;1.80;;
4084;SDS011;2057;50.858;6.572;2022-10-16T08:49:11;6.67;;;1.47;;
4084;SDS011;2057;50.858;6.572;2022-10-16T08:51:41;4.90;;;0.90;;
4084;SDS011;2057;50.858;6.572;2022-10-16T08:57:13;3.77;;;1.10;;
4084;SDS011;2057;50.858;6.572;2022-10-16T08:59:45;3.37;;;1.47;;
4084;SDS011;2057;50.858;6.572;2022-10-16T09:02:20;1.20;;;0.83;;
4084;SDS011;2057;50.858;6.572;2022-10-16T09:12:21;3.33;;;1.03;;
4084;SDS011;2057;50.858;6.572;2022-10-16T09:23:17;3.33;;;0.90;;
4084;SDS011;2057;50.858;6.572;2022-10-16T09:25:43;2.23;;;1.07;;
4084;SDS011;2057;50.858;6.572;2022-10-16T09:28:12;0.90;;;0.80;;
4084;SDS011;2057;50.858;6.572;2022-10-16T09:30:38;0.80;;;0.80;;
4084;SDS011;2057;50.858;6.572;2022-10-16T09:33:04;1.60;;;0.90;;
4084;SDS011;2057;50.858;6.572;2022-10-16T09:35:32;1.07;;;0.80;;
4084;SDS011;2057;50.858;6.572;2022-10-16T09:38:02;4.10;;;1.03;;
4084;SDS011;2057;50.858;6.572;2022-10-16T09:40:34;1.10;;;1.00;;
4084;SDS011;2057;50.858;6.572;2022-10-16T09:43:48;6.67;;;1.30;;
4084;SDS011;2057;50.858;6.572;2022-10-16T09:48:23;2.13;;;0.80;;
4084;SDS011;2057;50.858;6.572;2022-10-16T09:50:55;2.20;;;1.30;;
4084;SDS011;2057;50.858;6.572;2022-10-16T09:56:43;2.70;;;0.93;;
4084;SDS011;2057;50.858;6.572;2022-10-16T09:59:12;1.70;;;0.87;;
4084;SDS011;2057;50.858;6.572;2022-10-16T10:01:40;3.53;;;0.80;;
4084;SDS011;2057;50.858;6.572;2022-10-16T10:04:07;3.63;;;0.90;;
4084;SDS011;2057;50.858;6.572;2022-10-16T10:11:37;6.27;;;1.47;;
4084;SDS011;2057;50.858;6.572;2022-10-16T10:14:41;1.43;;;0.87;;
4084;SDS011;2057;50.858;6.572;2022-10-16T10:19:47;1.60;;;1.20;;
4084;SDS011;2057;50.858;6.572;2022-10-16T10:44:52;2.70;;;1.10;;
4084;SDS011;2057;50.858;6.572;2022-10-16T10:47:50;2.63;;;1.00;;
4084;SDS011;2057;50.858;6.572;2022-10-16T10:50:29;3.63;;;1.00;;
4084;SDS011;2057;50.858;6.572;2022-10-16T10:53:09;3.07;;;0.87;;
4084;SDS011;2057;50.858;6.572;2022-10-16T11:09:00;2.20;;;1.23;;
4084;SDS011;2057;50.858;6.572;2022-10-16T11:11:36;3.13;;;1.17;;
4084;SDS011;2057;50.858;6.572;2022-10-16T11:14:10;2.80;;;1.30;;
4084;SDS011;2057;50.858;6.572;2022-10-16T11:16:56;2.03;;;0.77;;
4084;SDS011;2057;50.858;6.572;2022-10-16T11:19:37;2.17;;;0.87;;
4084;SDS011;2057;50.858;6.572;2022-10-16T11:24:45;2.27;;;1.17;;
4084;SDS011;2057;50.858;6.572;2022-10-16T11:27:15;1.33;;;0.97;;
4084;SDS011;2057;50.858;6.572;2022-10-16T11:29:46;3.20;;;1.10;;
4084;SDS011;2057;50.858;6.572;2022-10-16T11:32:20;1.60;;;0.97;;
4084;SDS011;2057;50.858;6.572;2022-10-16T11:34:52;2.20;;;1.37;;
4084;SDS011;2057;50.858;6.572;2022-10-16T11:37:24;5.60;;;0.90;;
4084;SDS011;2057;50.858;6.572;2022-10-16T11:39:57;2.33;;;1.00;;
4084;SDS011;2057;50.858;6.572;2022-10-16T11:42:35;2.30;;;1.00;;
4084;SDS011;2057;50.858;6.572;2022-10-16T11:47:47;6.17;;;0.90;;
4084;SDS011;2057;50.858;6.572;2022-10-16T11:53:00;2.92;;;1.25;;
4084;SDS011;2057;50.858;6.572;2022-10-16T11:55:28;3.10;;;1.20;;
4084;SDS011;2057;50.858;6.572;2022-10-16T11:58:00;2.20;;;0.80;;
4084;SDS011;2057;50.858;6.572;2022-10-16T12:00:38;1.77;;;0.90;;
4084;SDS011;2057;50.858;6.572;2022-10-16T12:08:45;0.90;;;0.83;;
4084;SDS011;2057;50.858;6.572;2022-10-16T12:16:59;2.10;;;0.90;;
4084;SDS011;2057;50.858;6.572;2022-10-16T12:19:27;4.40;;;0.80;;
4084;SDS011;2057;50.858;6.572;2022-10-16T12:21:58;5.07;;;0.90;;
4084;SDS011;2057;50.858;6.572;2022-10-16T12:26:56;2.40;;;1.10;;
4084;SDS011;2057;50.858;6.572;2022-10-16T12:29:36;2.10;;;0.80;;
4084;SDS011;2057;50.858;6.572;2022-10-16T12:35:01;6.53;;;1.23;;
4084;SDS011;2057;50.858;6.572;2022-10-16T12:37:35;31.17;;;9.27;;
4084;SDS011;2057;50.858;6.572;2022-10-16T12:42:57;1.10;;;1.00;;
4084;SDS011;2057;50.858;6.572;2022-10-16T12:45:30;9.17;;;1.47;;
4084;SDS011;2057;50.858;6.572;2022-10-16T12:47:58;1.90;;;0.90;;
4084;SDS011;2057;50.858;6.572;2022-10-16T12:50:29;2.60;;;0.90;;
4084;SDS011;2057;50.858;6.572;2022-10-16T12:53:00;2.00;;;1.23;;
4084;SDS011;2057;50.858;6.572;2022-10-16T12:55:28;0.90;;;0.80;;
4084;SDS011;2057;50.858;6.572;2022-10-16T12:58:30;2.10;;;1.00;;
4084;SDS011;2057;50.858;6.572;2022-10-16T13:01:06;0.83;;;0.80;;
4084;SDS011;2057;50.858;6.572;2022-10-16T13:20:16;1.47;;;1.00;;
4084;SDS011;2057;50.858;6.572;2022-10-16T13:23:04;3.00;;;1.20;;
4084;SDS011;2057;50.858;6.572;2022-10-16T13:28:27;2.23;;;1.10;;
4084;SDS011;2057;50.858;6.572;2022-10-16T13:30:56;3.00;;;0.83;;
4084;SDS011;2057;50.858;6.572;2022-10-16T13:33:28;2.43;;;0.93;;
4084;SDS011;2057;50.858;6.572;2022-10-16T13:35:57;1.63;;;0.80;;
4084;SDS011;2057;50.858;6.572;2022-10-16T13:38:27;2.13;;;0.90;;
4084;SDS011;2057;50.858;6.572;2022-10-16T13:43:34;2.30;;;1.10;;
4084;SDS011;2057;50.858;6.572;2022-10-16T13:46:03;1.13;;;1.03;;
4084;SDS011;2057;50.858;6.572;2022-10-16T13:48:37;2.30;;;1.30;;
4084;SDS011;2057;50.858;6.572;2022-10-16T13:51:15;1.17;;;1.07;;
4084;SDS011;2057;50.858;6.572;2022-10-16T13:53:42;3.67;;;1.13;;
4084;SDS011;2057;50.858;6.572;2022-10-16T13:56:13;0.77;;;0.77;;
4084;SDS011;2057;50.858;6.572;2022-10-16T13:58:40;4.67;;;1.37;;
4084;SDS011;2057;50.858;6.572;2022-10-16T14:04:04;4.77;;;1.27;;
4084;SDS011;2057;50.858;6.572;2022-10-16T14:06:32;0.90;;;0.70;;
4084;SDS011;2057;50.858;6.572;2022-10-16T14:11:30;4.50;;;0.90;;
4084;SDS011;2057;50.858;6.572;2022-10-16T14:13:56;5.63;;;1.20;;
4084;SDS011;2057;50.858;6.572;2022-10-16T14:16:23;1.73;;;1.00;;
4084;SDS011;2057;50.858;6.572;2022-10-16T14:19:01;1.93;;;1.03;;
4084;SDS011;2057;50.858;6.572;2022-10-16T14:21:28;1.27;;;1.03;;
4084;SDS011;2057;50.858;6.572;2022-10-16T14:23:57;4.03;;;1.47;;
4084;SDS011;2057;50.858;6.572;2022-10-16T14:26:23;6.77;;;1.23;;
4084;SDS011;2057;50.858;6.572;2022-10-16T14:29:01;1.00;;;0.90;;
4084;SDS011;2057;50.858;6.572;2022-10-16T14:31:36;2.50;;;0.90;;
4084;SDS011;2057;50.858;6.572;2022-10-16T14:34:22;2.60;;;1.20;;
4084;SDS011;2057;50.858;6.572;2022-10-16T14:36:49;3.40;;;1.23;;
4084;SDS011;2057;50.858;6.572;2022-10-16T14:39:19;1.37;;;0.90;;
4084;SDS011;2057;50.858;6.572;2022-10-16T14:41:47;6.20;;;0.90;;
4084;SDS011;2057;50.858;6.572;2022-10-16T14:44:13;2.80;;;1.00;;
4084;SDS011;2057;50.858;6.572;2022-10-16T14:46:41;1.00;;;0.80;;
4084;SDS011;2057;50.858;6.572;2022-10-16T14:51:34;1.00;;;0.90;;
4084;SDS011;2057;50.858;6.572;2022-10-16T14:54:00;1.47;;;1.00;;
4084;SDS011;2057;50.858;6.572;2022-10-16T14:56:28;1.47;;;0.90;;
4084;SDS011;2057;50.858;6.572;2022-10-16T14:58:56;8.23;;;1.20;;
4084;SDS011;2057;50.858;6.572;2022-10-16T15:01:22;2.60;;;0.90;;
4084;SDS011;2057;50.858;6.572;2022-10-16T15:03:47;4.60;;;1.00;;
4084;SDS011;2057;50.858;6.572;2022-10-16T15:06:15;6.10;;;0.90;;
4084;SDS011;2057;50.858;6.572;2022-10-16T15:08:41;0.73;;;0.70;;
4084;SDS011;2057;50.858;6.572;2022-10-16T15:11:14;2.20;;;0.80;;
4084;SDS011;2057;50.858;6.572;2022-10-16T15:13:41;4.10;;;1.20;;
4084;SDS011;2057;50.858;6.572;2022-10-16T15:16:14;0.70;;;0.70;;
4084;SDS011;2057;50.858;6.572;2022-10-16T15:18:41;1.63;;;0.90;;
4084;SDS011;2057;50.858;6.572;2022-10-16T15:21:07;2.00;;;0.83;;
4084;SDS011;2057;50.858;6.572;2022-10-16T15:23:32;1.50;;;0.80;;
4084;SDS011;2057;50.858;6.572;2022-10-16T15:25:58;0.90;;;0.90;;
4084;SDS011;2057;50.858;6.572;2022-10-16T15:28:26;1.67;;;1.10;;
4084;SDS011;2057;50.858;6.572;2022-10-16T15:30:52;1.53;;;0.90;;
4084;SDS011;2057;50.858;6.572;2022-10-16T15:33:23;2.20;;;1.00;;
4084;SDS011;2057;50.858;6.572;2022-10-16T15:35:52;2.47;;;1.93;;
4084;SDS011;2057;50.858;6.572;2022-10-16T15:38:19;7.30;;;2.20;;
4084;SDS011;2057;50.858;6.572;2022-10-16T15:40:47;4.27;;;3.40;;
4084;SDS011;2057;50.858;6.572;2022-10-16T15:43:13;6.47;;;3.63;;
4084;SDS011;2057;50.858;6.572;2022-10-16T15:45:38;3.80;;;3.43;;
4084;SDS011;2057;50.858;6.572;2022-10-16T15:48:04;13.63;;;4.50;;
4084;SDS011;2057;50.858;6.572;2022-10-16T15:50:29;16.20;;;8.80;;
4084;SDS011;2057;50.858;6.572;2022-10-16T15:52:56;31.77;;;17.20;;
4084;SDS011;2057;50.858;6.572;2022-10-16T15:55:21;15.80;;;7.87;;
4084;SDS011;2057;50.858;6.572;2022-10-16T15:57:47;4.50;;;2.63;;
4084;SDS011;2057;50.858;6.572;2022-10-16T16:00:15;5.90;;;2.20;;
4084;SDS011;2057;50.858;6.572;2022-10-16T16:02:42;2.30;;;1.87;;
4084;SDS011;2057;50.858;6.572;2022-10-16T16:05:09;3.30;;;2.20;;
4084;SDS011;2057;50.858;6.572;2022-10-16T16:07:36;4.73;;;2.50;;
4084;SDS011;2057;50.858;6.572;2022-10-16T16:10:03;5.53;;;3.87;;
4084;SDS011;2057;50.858;6.572;2022-10-16T16:12:31;4.20;;;3.43;;
4084;SDS011;2057;50.858;6.572;2022-10-16T16:14:57;2.67;;;2.47;;
4084;SDS011;2057;50.858;6.572;2022-10-16T16:17:22;6.33;;;3.53;;
4084;SDS011;2057;50.858;6.572;2022-10-16T16:19:49;72.93;;;29.47;;
4084;SDS011;2057;50.858;6.572;2022-10-16T16:22:14;121.50;;;48.83;;
4084;SDS011;2057;50.858;6.572;2022-10-16T16:24:40;45.90;;;19.10;;
4084;SDS011;2057;50.858;6.572;2022-10-16T16:27:05;10.47;;;5.03;;
4084;SDS011;2057;50.858;6.572;2022-10-16T16:29:30;3.50;;;1.97;;
4084;SDS011;2057;50.858;6.572;2022-10-16T16:31:56;4.23;;;1.60;;
4084;SDS011;2057;50.858;6.572;2022-10-16T16:34:22;1.00;;;0.90;;
4084;SDS011;2057;50.858;6.572;2022-10-16T16:36:49;4.53;;;1.53;;
4084;SDS011;2057;50.858;6.572;2022-10-16T16:39:15;1.30;;;1.10;;
4084;SDS011;2057;50.858;6.572;2022-10-16T16:41:40;1.27;;;1.17;;
4084;SDS011;2057;50.858;6.572;2022-10-16T16:44:07;4.53;;;1.37;;
4084;SDS011;2057;50.858;6.572;2022-10-16T16:46:35;2.20;;;2.00;;
4084;SDS011;2057;50.858;6.572;2022-10-16T16:49:03;2.20;;;1.80;;
4084;SDS011;2057;50.858;6.572;2022-10-16T16:51:29;6.63;;;3.77;;
4084;SDS011;2057;50.858;6.572;2022-10-16T16:53:54;10.17;;;4.43;;
4084;SDS011;2057;50.858;6.572;2022-10-16T16:56:23;5.53;;;3.20;;
4084;SDS011;2057;50.858;6.572;2022-10-16T16:58:50;4.93;;;2.90;;
4084;SDS011;2057;50.858;6.572;2022-10-16T17:01:17;3.10;;;1.97;;
4084;SDS011;2057;50.858;6.572;2022-10-16T17:03:44;5.70;;;2.77;;
4084;SDS011;2057;50.858;6.572;2022-10-16T17:06:10;3.20;;;2.23;;
4084;SDS011;2057;50.858;6.572;2022-10-16T17:08:37;6.50;;;1.40;;
4084;SDS011;2057;50.858;6.572;2022-10-16T17:11:03;1.33;;;1.23;;
4084;SDS011;2057;50.858;6.572;2022-10-16T17:13:31;1.33;;;1.23;;
4084;SDS011;2057;50.858;6.572;2022-10-16T17:16:00;2.73;;;1.80;;
4084;SDS011;2057;50.858;6.572;2022-10-16T17:18:26;4.07;;;1.53;;
4084;SDS011;2057;50.858;6.572;2022-10-16T17:20:54;8.70;;;2.97;;
4084;SDS011;2057;50.858;6.572;2022-10-16T17:23:23;6.03;;;4.10;;
4084;SDS011;2057;50.858;6.572;2022-10-16T17:25:48;5.03;;;2.87;;
4084;SDS011;2057;50.858;6.572;2022-10-16T17:28:14;4.83;;;1.80;;
4084;SDS011;2057;50.858;6.572;2022-10-16T17:30:39;3.60;;;2.10;;
4084;SDS011;2057;50.858;6.572;2022-10-16T17:33:06;8.50;;;2.70;;
4084;SDS011;2057;50.858;6.572;2022-10-16T17:35:39;2.20;;;1.50;;
4084;SDS011;2057;50.858;6.572;2022-10-16T17:38:06;7.50;;;1.90;;
4084;SDS011;2057;50.858;6.572;2022-10-16T17:40:32;3.50;;;1.43;;
4084;SDS011;2057;50.858;6.572;2022-10-16T17:42:57;1.63;;;1.53;;
4084;SDS011;2057;50.858;6.572;2022-10-16T17:45:26;4.93;;;0.97;;
4084;SDS011;2057;50.858;6.572;2022-10-16T17:47:53;2.43;;;1.17;;
4084;SDS011;2057;50.858;6.572;2022-10-16T17:50:18;2.20;;;1.23;;